Forum Crazy Orc - Centre de statistiques

Statistiques générales

Total des membres:
970
Total des messages:
96 456
Total des sujets:
4 015
Total des catégories:
4
Membres en ligne:
56
Connexions simultanées:
808 - 21 janvier 2020 à 20:55:59
En ligne aujourd'hui:
80
Total des pages vues:
32 520 098
Moyenne des inscriptions par jour:
0,25
Moyenne des messages par jour:
24,88
Moyenne des sujets par jour:
1,10
Total des sections:
40
Dernier membre:
AlexC
Moyenne d'utilisateurs connectés par jour:
47,27
Ratio hommes/femmes:
7.1:1
Pages vues en moyenne par jour:
5 768,02

Top lanceurs de sujets

nunch
600
ManuDevil
287
Morithil
282
GroumpH
246
Scratchy
132
MAO
110
LeDupontesque
105
jules
99
snake
92
CCCP
85

Temps de connexion cumulé

Mandy
133j 19h 59m
GroumpH
112j 9h 9m
CCCP
86j 5h 36m
Nukeflow
73j 8h 19m
ManuDevil
67j 8h 10m
Felipe
61j 12h 19m
dao
56j 17h 58m
nunch
49j 46m
Rh
42j 23h 32m
Patate
41j 23h 0m

Historique du forum (basé sur l'heure interne du forum)

Résumé annuel Nouveaux sujets Nouveaux messages Nouveaux membres Connexions simultanées Pages vues
* 2022 116 685 58 208 2 266 365
Août 2022 1 14 1 116 110 568
Juillet 2022 13 69 4 208 308 045
Juin 2022 14 76 4 62 333 112
Mai 2022 16 118 8 91 339 244
Avril 2022 18 133 12 61 254 691
Mars 2022 15 123 8 65 281 935
Février 2022 17 84 9 58 314 588
Janvier 2022 22 68 12 70 324 182
* 2021 129 756 53 338 4 376 522
Décembre 2021 8 37 0 129 661 064
Novembre 2021 13 99 4 153 262 314
Octobre 2021 20 208 15 159 298 103
Septembre 2021 24 171 10 280 285 455
Août 2021 11 33 7 73 231 609
Juillet 2021 6 8 2 81 305 173
Juin 2021 17 31 2 135 311 168
Mai 2021 3 31 4 268 597 777
Avril 2021 10 51 6 287 308 355
Mars 2021 7 24 1 308 444 900
Février 2021 5 29 2 338 223 056
2021-02-01 1 1 0 54 9 051
2021-02-02 0 1 0 50 7 915
2021-02-03 0 0 0 48 4 645
2021-02-04 0 3 0 48 5 872
2021-02-05 0 2 0 48 7 890
2021-02-06 0 0 0 47 6 585
2021-02-07 0 0 0 70 15 429
2021-02-08 0 1 0 54 7 692
2021-02-09 3 3 1 58 8 579
2021-02-10 0 2 0 69 8 517
2021-02-11 0 0 0 59 6 724
2021-02-12 0 4 0 61 8 593
2021-02-13 0 0 0 63 5 515
2021-02-14 0 0 0 62 6 322
2021-02-15 1 5 0 69 8 207
2021-02-16 0 1 0 75 9 081
2021-02-17 0 0 0 338 10 115
2021-02-18 0 0 0 79 7 644
2021-02-19 0 0 0 106 8 262
2021-02-20 0 1 0 78 5 723
2021-02-21 0 1 0 41 3 073
2021-02-22 0 0 0 84 5 600
2021-02-23 0 1 0 86 9 974
2021-02-24 0 3 1 116 9 261
2021-02-25 0 0 0 142 12 642
2021-02-26 0 0 0 140 10 029
2021-02-27 0 0 0 79 7 214
2021-02-28 0 0 0 78 6 902
Janvier 2021 5 34 0 322 447 548
* 2020 206 1 716 105 808 4 713 463
Décembre 2020 6 38 2 320 310 487
Novembre 2020 12 97 3 352 464 426
2020-11-01 0 1 0 116 10 715
2020-11-02 2 3 0 125 9 649
2020-11-03 0 7 0 102 10 433
2020-11-04 0 0 0 95 11 152
2020-11-05 0 3 0 92 11 950
2020-11-06 1 4 0 86 9 328
2020-11-07 0 9 0 79 13 532
2020-11-08 0 4 0 97 10 296
2020-11-09 1 6 0 85 10 894
2020-11-10 0 5 0 79 6 851
2020-11-11 0 1 0 83 6 495
2020-11-12 0 1 0 86 10 836
2020-11-13 0 1 0 80 9 519
2020-11-14 0 0 0 72 8 283
2020-11-15 0 2 0 77 8 335
2020-11-16 3 10 1 78 9 396
2020-11-17 0 1 0 104 10 915
2020-11-18 1 2 0 352 16 974
2020-11-19 0 4 0 95 11 042
2020-11-20 1 4 2 87 10 172
2020-11-21 0 1 0 87 9 318
2020-11-22 1 7 0 81 8 520
2020-11-23 0 2 0 86 12 898
2020-11-24 0 3 0 101 11 997
2020-11-25 0 2 0 113 14 003
2020-11-26 1 3 0 108 12 703
2020-11-27 0 6 0 90 63 154
2020-11-28 0 1 0 92 102 895
2020-11-29 0 2 0 105 11 784
2020-11-30 1 2 0 116 10 387
Octobre 2020 21 169 7 346 497 422
Septembre 2020 30 356 15 133 325 183
Août 2020 16 147 7 163 471 897
Juillet 2020 16 77 2 100 345 760
Juin 2020 17 60 5 127 452 817
2020-06-01 0 1 0 97 7 843
2020-06-02 7 8 0 99 6 624
2020-06-03 0 0 0 116 9 483
2020-06-04 0 0 0 127 10 949
2020-06-05 0 0 0 54 8 472
2020-06-06 0 0 0 60 11 941
2020-06-07 0 3 0 60 62 107
2020-06-08 0 1 1 59 116 791
2020-06-09 0 1 0 67 15 021
2020-06-10 2 6 0 51 11 623
2020-06-11 0 0 0 50 8 819
2020-06-12 0 0 0 54 9 812
2020-06-13 0 0 1 57 9 517
2020-06-14 0 1 0 54 10 890
2020-06-15 2 5 0 50 11 230
2020-06-16 0 3 0 66 11 587
2020-06-17 0 0 1 53 7 877
2020-06-18 0 0 0 53 7 889
2020-06-19 0 0 0 47 8 061
2020-06-20 0 1 0 49 10 663
2020-06-21 0 0 0 49 8 505
2020-06-22 0 2 0 51 8 058
2020-06-23 0 1 0 50 9 272
2020-06-24 1 7 1 59 9 508
2020-06-25 0 4 0 53 9 909
2020-06-26 0 1 0 53 10 161
2020-06-27 0 0 1 58 11 373
2020-06-28 0 0 0 63 8 637
2020-06-29 5 12 0 67 8 575
2020-06-30 0 3 0 56 11 620
Mai 2020 7 22 3 295 321 652
Avril 2020 10 47 1 189 300 030
Mars 2020 24 253 3 199 467 854
2020-03-01 0 7 0 104 10 346
2020-03-02 0 5 0 126 6 471
2020-03-03 3 17 1 107 4 913
2020-03-04 0 10 0 116 5 122
2020-03-05 1 12 0 143 8 779
2020-03-06 0 9 0 144 11 988
2020-03-07 0 2 0 123 11 124
2020-03-08 0 5 0 122 13 134
2020-03-09 0 10 0 117 13 459
2020-03-10 2 5 0 114 11 164
2020-03-11 0 4 0 105 8 274
2020-03-12 0 10 0 199 11 093
2020-03-13 0 9 0 186 12 284
2020-03-14 1 11 0 189 12 386
2020-03-15 1 12 1 189 11 665
2020-03-16 1 3 0 173 10 318
2020-03-17 0 8 0 116 9 643
2020-03-18 0 2 0 107 8 287
2020-03-19 0 4 0 105 10 639
2020-03-20 0 0 0 116 10 883
2020-03-21 0 4 0 114 10 354
2020-03-22 0 0 0 119 9 230
2020-03-23 3 9 0 112 6 679
2020-03-24 0 7 0 113 47 441
2020-03-25 0 10 0 107 140 101
2020-03-26 5 9 0 119 6 876
2020-03-27 1 6 0 154 6 818
2020-03-28 1 16 0 114 7 190
2020-03-29 2 20 0 105 6 840
2020-03-30 1 13 0 121 11 552
2020-03-31 2 14 1 117 12 801
Février 2020 18 171 9 323 281 798
Janvier 2020 29 279 48 808 474 137
* 2019 246 3 411 313 446 3 308 531
Décembre 2019 18 159 26 446 351 248
2019-12-01 0 4 1 277 11 373
2019-12-02 1 14 1 135 11 534
2019-12-03 0 5 1 110 9 010
2019-12-04 0 4 2 106 7 741
2019-12-05 0 6 0 330 8 461
2019-12-06 3 13 1 335 12 098
2019-12-07 0 4 0 215 16 251
2019-12-08 0 0 2 114 35 635
2019-12-09 4 16 3 170 9 809
2019-12-10 1 4 0 112 11 124
2019-12-11 0 5 1 299 9 463
2019-12-12 0 3 1 306 9 544
2019-12-13 0 2 0 366 8 347
2019-12-14 0 3 0 446 11 186
2019-12-15 1 13 0 367 10 258
2019-12-16 2 14 0 109 9 322
2019-12-17 0 13 0 127 9 034
2019-12-18 1 5 0 233 9 507
2019-12-19 1 2 4 112 10 126
2019-12-20 0 0 0 104 9 567
2019-12-21 0 6 1 116 10 009
2019-12-22 0 0 1 105 10 019
2019-12-23 0 0 0 125 10 592
2019-12-24 0 2 0 127 11 029
2019-12-25 0 0 0 112 10 531
2019-12-26 0 1 0 138 11 502
2019-12-27 0 3 0 113 14 168
2019-12-28 0 0 4 115 20 305
2019-12-29 4 5 1 119 11 114
2019-12-30 0 7 1 127 5 225
2019-12-31 0 5 1 125 7 364
Novembre 2019 16 245 33 325 524 135
2019-11-01 1 5 3 104 6 570
2019-11-02 0 8 0 112 5 937
2019-11-03 5 17 2 103 5 135
2019-11-04 0 13 4 108 4 364
2019-11-05 1 7 1 101 4 644
2019-11-06 0 19 0 100 7 049
2019-11-07 0 16 0 107 5 602
2019-11-08 0 7 2 100 5 473
2019-11-09 0 10 2 115 4 378
2019-11-10 0 14 1 113 5 596
2019-11-11 2 6 0 98 4 288
2019-11-12 0 12 0 131 4 467
2019-11-13 0 9 1 114 5 320
2019-11-14 1 6 1 125 6 683
2019-11-15 1 13 1 120 4 926
2019-11-16 0 8 0 163 6 256
2019-11-17 0 3 0 134 5 852
2019-11-18 0 1 1 107 5 431
2019-11-19 0 9 4 99 4 758
2019-11-20 1 11 1 102 3 814
2019-11-21 0 6 0 117 9 376
2019-11-22 0 8 0 112 11 663
2019-11-23 0 6 0 101 8 399
2019-11-24 0 4 1 109 9 641
2019-11-25 0 2 2 112 8 759
2019-11-26 2 2 0 114 56 347
2019-11-27 2 6 1 111 123 100
2019-11-28 0 3 1 112 10 114
2019-11-29 0 8 2 110 67 835
2019-11-30 0 6 2 325 112 358
Octobre 2019 24 272 59 121 189 762
Septembre 2019 25 386 54 141 376 708
Août 2019 22 257 31 122 225 760
2019-08-01 0 17 1 101 4 722
2019-08-02 1 16 1 99 5 527
2019-08-03 0 9 0 100 9 242
2019-08-04 0 2 0 92 4 700
2019-08-05 0 4 0 122 3 678
2019-08-06 0 8 0 94 4 677
2019-08-07 0 4 0 98 4 369
2019-08-08 0 5 0 100 6 221
2019-08-09 1 8 0 111 6 677
2019-08-10 0 1 0 99 8 730
2019-08-11 0 10 0 101 6 982
2019-08-12 0 10 1 100 22 525
2019-08-13 1 11 0 99 15 601
2019-08-14 0 10 0 100 10 146
2019-08-15 1 6 2 114 7 279
2019-08-16 1 14 0 98 8 935
2019-08-17 0 6 0 100 8 964
2019-08-18 1 2 1 103 11 513
2019-08-19 3 5 3 92 9 363
2019-08-20 0 0 1 94 4 320
2019-08-21 2 7 4 97 4 019
2019-08-22 0 5 2 95 4 156
2019-08-23 0 3 1 78 7 584
2019-08-24 0 4 1 32 2 644
2019-08-25 1 5 2 91 3 521
2019-08-26 0 9 3 100 5 440
2019-08-27 6 29 2 101 5 306
2019-08-28 1 12 2 92 4 748
2019-08-29 0 7 1 92 4 376
2019-08-30 1 16 0 93 9 018
2019-08-31 2 12 3 98 10 777
Juillet 2019 24 281 62 149 190 301
2019-07-01 4 24 0 104 8 142
2019-07-02 2 16 0 100 8 838
2019-07-03 0 5 0 95 8 928
2019-07-04 0 8 0 91 9 284
2019-07-05 1 10 1 91 6 175
2019-07-06 0 3 0 83 4 015
2019-07-07 0 3 0 89 3 603
2019-07-08 0 20 1 83 4 139
2019-07-09 0 11 0 90 7 781
2019-07-10 1 12 1 84 9 897
2019-07-11 0 15 0 91 7 893
2019-07-12 1 10 0 94 4 561
2019-07-13 0 1 0 88 3 908
2019-07-14 0 4 0 88 7 782
2019-07-15 0 8 0 92 8 996
2019-07-16 0 0 0 84 6 713
2019-07-17 0 7 1 92 7 822
2019-07-18 1 7 1 131 5 964
2019-07-19 3 17 0 88 3 871
2019-07-20 0 7 1 86 4 460
2019-07-21 0 6 1 149 3 654
2019-07-22 1 6 0 116 4 333
2019-07-23 0 3 0 124 2 777
2019-07-24 0 0 0 108 5 144
2019-07-25 1 6 8 136 6 264
2019-07-26 0 7 14 131 6 609
2019-07-27 0 6 4 131 6 579
2019-07-28 0 10 6 129 5 658
2019-07-29 1 17 9 110 5 459
2019-07-30 7 10 6 134 5 038
2019-07-31 1 22 8 142 6 014
Juin 2019 11 171 3 112 246 519
Mai 2019 23 311 10 167 218 891
Avril 2019 21 294 9 174 311 459
Mars 2019 22 372 16 142 344 146
Février 2019 18 288 4 110 142 132
Janvier 2019 22 375 6 113 187 470
* 2018 338 6 176 81 641 2 624 946
Décembre 2018 43 306 8 253 421 582
Novembre 2018 26 467 9 641 383 363
Octobre 2018 34 527 6 321 248 725
Septembre 2018 34 641 10 127 216 306
Août 2018 32 583 16 101 188 648
2018-08-01 0 26 0 98 6 784
2018-08-02 0 29 0 101 6 795
2018-08-03 0 11 0 93 6 370
2018-08-04 5 19 1 90 6 653
2018-08-05 4 23 0 93 6 519
2018-08-06 0 24 0 95 6 142
2018-08-07 2 23 1 94 5 013
2018-08-08 0 18 0 93 6 325
2018-08-09 1 9 0 98 6 608
2018-08-10 1 13 1 101 6 723
2018-08-11 0 17 1 94 6 721
2018-08-12 1 9 2 92 6 116
2018-08-13 2 19 0 93 6 356
2018-08-14 0 5 0 90 6 043
2018-08-15 1 16 0 93 6 200
2018-08-16 1 34 0 89 6 859
2018-08-17 0 25 0 86 5 971
2018-08-18 0 27 1 90 6 101
2018-08-19 4 24 0 94 6 672
2018-08-20 0 10 1 83 6 150
2018-08-21 1 9 2 93 5 405
2018-08-22 1 24 0 90 4 343
2018-08-23 3 23 3 89 5 993
2018-08-24 1 54 3 92 7 389
2018-08-25 0 13 0 84 5 312
2018-08-26 0 3 0 83 5 702
2018-08-27 0 9 0 82 5 196
2018-08-28 2 10 0 84 5 401
2018-08-29 1 8 0 82 4 297
2018-08-30 1 19 0 27 4 663
2018-08-31 0 30 0 22 7 826
Juillet 2018 21 386 3 104 182 475
Juin 2018 31 442 3 110 213 303
Mai 2018 21 422 4 107 174 393
Avril 2018 25 564 5 104 159 849
Mars 2018 20 634 4 96 152 933
Février 2018 25 631 7 93 121 912
Janvier 2018 26 573 6 94 161 457
* 2017 346 6 100 56 180 1 675 168
Décembre 2017 37 499 6 91 136 063
Novembre 2017 37 675 6 93 169 670
Octobre 2017 15 426 2 93 151 449
Septembre 2017 28 548 5 94 135 543
Août 2017 29 384 6 99 148 097
Juillet 2017 25 490 5 87 176 472
2017-07-01 0 15 0 70 4 062
2017-07-02 0 3 1 65 3 539
2017-07-03 1 23 1 62 3 836
2017-07-04 1 26 0 72 3 952
2017-07-05 1 10 0 61 4 350
2017-07-06 1 29 0 87 4 569
2017-07-07 0 20 1 77 4 031
2017-07-08 1 22 0 69 5 874
2017-07-09 0 19 0 69 7 487
2017-07-10 0 17 0 72 5 879
2017-07-11 1 4 0 67 7 492
2017-07-12 0 5 0 71 6 813
2017-07-13 1 4 0 79 25 553
2017-07-14 0 5 0 87 5 690
2017-07-15 0 5 0 72 4 170
2017-07-16 2 18 0 78 4 326
2017-07-17 5 25 0 73 4 689
2017-07-18 0 17 1 76 4 440
2017-07-19 1 19 0 83 3 965
2017-07-20 0 12 0 76 4 047
2017-07-21 1 19 1 75 5 666
2017-07-22 1 10 0 72 4 430
2017-07-23 2 22 0 77 5 427
2017-07-24 0 21 0 83 6 448
2017-07-25 1 16 0 69 4 956
2017-07-26 3 31 0 84 5 953
2017-07-27 0 21 0 75 5 107
2017-07-28 0 12 0 70 6 063
2017-07-29 0 18 0 72 5 667
2017-07-30 1 9 0 67 4 294
2017-07-31 1 13 0 68 3 697
Juin 2017 33 603 4 89 156 248
Mai 2017 26 470 2 99 181 189
2017-05-01 0 10 0 60 6 651
2017-05-02 0 5 0 93 7 583
2017-05-03 1 12 0 87 7 979
2017-05-04 2 21 0 78 8 358
2017-05-05 1 14 0 71 7 427
2017-05-06 0 21 0 72 7 076
2017-05-07 1 22 0 77 6 140
2017-05-08 0 10 0 72 5 729
2017-05-09 0 14 1 74 7 689
2017-05-10 2 16 0 73 4 488
2017-05-11 0 12 0 70 3 188
2017-05-12 1 38 0 68 5 384
2017-05-13 0 4 0 59 5 267
2017-05-14 3 17 0 72 6 766
2017-05-15 0 12 0 71 5 041
2017-05-16 0 23 0 61 5 057
2017-05-17 2 22 0 99 5 471
2017-05-18 2 31 0 64 6 069
2017-05-19 0 19 0 63 4 606
2017-05-20 0 8 0 72 6 432
2017-05-21 2 11 0 63 5 595
2017-05-22 1 16 0 64 4 783
2017-05-23 0 24 0 64 4 472
2017-05-24 1 8 0 79 4 750
2017-05-25 0 4 0 61 4 617
2017-05-26 0 11 0 63 7 032
2017-05-27 6 19 0 61 5 588
2017-05-28 0 11 0 72 3 450
2017-05-29 0 6 0 69 8 108
2017-05-30 1 19 1 64 5 031
2017-05-31 0 10 0 72 5 362
Avril 2017 31 490 5 180 139 896
Mars 2017 27 432 3 119 90 981
Février 2017 31 587 7 87 74 924
Janvier 2017 27 496 5 80 114 636
* 2016 389 7 721 79 245 2 075 605
Décembre 2016 34 533 2 170 118 206
Novembre 2016 34 586 6 245 122 991
Octobre 2016 43 726 7 191 160 217
Septembre 2016 26 657 9 85 157 449
Août 2016 31 721 9 114 169 873
Juillet 2016 19 513 3 58 166 690
Juin 2016 30 565 5 53 211 715
Mai 2016 40 1 116 8 94 166 514
2016-05-01 0 19 0 47 4 888
2016-05-02 0 14 0 22 13 022
2016-05-03 0 23 0 27 4 139
2016-05-04 1 18 1 27 2 753
2016-05-05 1 23 0 20 2 962
2016-05-06 1 19 0 19 3 036
2016-05-07 5 34 1 37 3 070
2016-05-08 1 30 0 33 3 881
2016-05-09 1 24 0 41 3 841
2016-05-10 1 14 0 23 3 570
2016-05-11 0 14 0 23 3 294
2016-05-12 1 24 1 24 3 901
2016-05-13 1 32 0 25 4 235
2016-05-14 3 35 0 26 4 289
2016-05-15 1 48 0 43 3 972
2016-05-16 1 44 0 86 5 681
2016-05-17 3 23 0 93 5 996
2016-05-18 0 38 0 91 5 828
2016-05-19 1 45 0 80 5 615
2016-05-20 1 21 0 94 5 467
2016-05-21 0 14 0 72 6 411
2016-05-22 4 56 1 37 16 571
2016-05-23 1 52 0 42 5 079
2016-05-24 0 81 0 50 4 705
2016-05-25 2 86 1 47 5 213
2016-05-26 3 102 1 47 4 888
2016-05-27 1 72 1 42 4 598
2016-05-28 0 23 0 42 4 412
2016-05-29 3 34 0 49 4 569
2016-05-30 1 38 1 88 10 787
2016-05-31 2 16 0 46 5 841
Avril 2016 27 529 7 65 155 208
Mars 2016 35 513 11 88 224 056
Février 2016 35 640 4 96 192 454
Janvier 2016 35 622 8 95 230 232
2016-01-01 1 38 0 74 6 938
2016-01-02 5 14 0 62 4 266
2016-01-03 1 10 0 73 4 160
2016-01-04 1 17 1 74 5 076
2016-01-05 2 22 0 81 6 676
2016-01-06 0 16 1 73 2 487
2016-01-07 2 18 1 73 16 041
2016-01-08 1 18 1 68 8 960
2016-01-09 0 15 0 83 5 138
2016-01-10 2 38 0 80 5 949
2016-01-11 2 44 0 77 6 900
2016-01-12 0 18 0 77 7 023
2016-01-13 1 29 1 83 8 300
2016-01-14 1 17 0 94 10 452
2016-01-15 1 20 0 90 7 501
2016-01-16 0 35 0 95 11 508
2016-01-17 0 32 0 85 12 436
2016-01-18 1 14 0 81 15 167
2016-01-19 1 23 0 83 13 475
2016-01-20 1 20 0 79 9 097
2016-01-21 0 9 0 75 7 399
2016-01-22 1 8 0 71 7 610
2016-01-23 0 18 0 73 5 798
2016-01-24 1 20 0 66 5 545
2016-01-25 4 14 0 74 4 580
2016-01-26 1 14 0 75 6 897
2016-01-27 1 11 1 80 5 561
2016-01-28 1 22 0 83 5 191
2016-01-29 0 14 0 73 4 905
2016-01-30 1 14 1 81 4 215
2016-01-31 2 20 1 64 4 981
* 2015 373 6 684 79 100 1 549 803
Décembre 2015 28 499 7 68 140 303
Novembre 2015 40 724 5 35 146 607
Octobre 2015 32 760 10 84 227 528
Septembre 2015 40 948 13 100 169 012
Août 2015 36 566 12 61 119 954
Juillet 2015 29 462 7 31 89 666
Juin 2015 24 453 5 30 112 317
Mai 2015 30 390 2 24 73 874
Avril 2015 29 408 4 25 95 371
Mars 2015 38 550 7 37 130 116
Février 2015 15 434 2 24 123 854
Janvier 2015 32 490 5 44 121 201
* 2014 428 7 364 58 58 2 478 164
Décembre 2014 24 360 4 33 191 610
Novembre 2014 37 572 7 46 525 858
Octobre 2014 45 928 8 58 364 915
Septembre 2014 24 549 8 32 162 413
2014-09-01 1 8 0 24 5 910
2014-09-02 1 12 0 23 5 619
2014-09-03 0 4 0 29 5 993
2014-09-04 2 39 1 24 6 382
2014-09-05 1 16 0 25 7 071
2014-09-06 0 24 0 32 5 116
2014-09-07 1 14 0 17 3 343
2014-09-08 1 16 0 16 2 841
2014-09-09 1 12 0 23 5 898
2014-09-10 1 41 0 27 4 745
2014-09-11 3 21 0 23 5 234
2014-09-12 2 33 1 25 5 243
2014-09-13 0 7 0 21 4 951
2014-09-14 1 7 1 18 4 734
2014-09-15 0 29 0 21 5 744
2014-09-16 0 14 0 18 4 638
2014-09-17 0 10 0 19 5 146
2014-09-18 0 13 0 21 5 364
2014-09-19 0 8 0 21 5 709
2014-09-20 0 9 1 19 4 470
2014-09-21 3 26 1 19 5 891
2014-09-22 0 13 0 19 5 025
2014-09-23 1 22 0 20 6 398
2014-09-24 0 23 1 19 6 006
2014-09-25 0 16 0 22 5 732
2014-09-26 0 7 0 21 4 404
2014-09-27 1 19 1 23 4 732
2014-09-28 2 30 1 27 5 640
2014-09-29 2 36 0 25 7 160
2014-09-30 0 20 0 31 7 274
Août 2014 17 251 4 27 191 624
Juillet 2014 25 369 3 30 236 312
Juin 2014 29 602 3 32 220 918
Mai 2014 34 842 6 29 157 174
Avril 2014 45 662 1 25 104 486
2014-04-01 3 29 0 14 4 594
2014-04-02 3 19 0 19 3 032
2014-04-03 2 14 0 13 2 744
2014-04-04 0 12 0 14 3 214
2014-04-05 0 5 0 17 3 260
2014-04-06 0 6 0 18 3 097
2014-04-07 1 13 0 20 2 585
2014-04-08 0 11 0 23 3 197
2014-04-09 1 11 0 18 3 647
2014-04-10 0 8 1 17 3 928
2014-04-11 0 9 0 20 2 170
2014-04-12 1 13 0 24 2 967
2014-04-13 0 13 0 21 3 698
2014-04-14 1 8 0 23 3 494
2014-04-15 4 15 0 22 6 980
2014-04-16 1 25 0 19 4 022
2014-04-17 0 17 0 15 6 056
2014-04-18 3 22 0 17 2 815
2014-04-19 0 16 0 17 2 641
2014-04-20 1 11 0 18 4 085
2014-04-21 2 23 0 22 3 723
2014-04-22 0 30 0 22 4 837
2014-04-23 0 37 0 24 3 303
2014-04-24 3 36 0 25 3 341
2014-04-25 8 65 0 18 2 930
2014-04-26 3 46 0 19 2 659
2014-04-27 5 45 0 19 3 483
2014-04-28 0 19 0 19 2 858
2014-04-29 2 46 0 14 2 266
2014-04-30 1 38 0 14 2 860
Mars 2014 32 595 4 26 120 439
2014-03-01 0 12 1 20 3 786
2014-03-02 1 4 1 24 3 590
2014-03-03 0 7 0 20 2 446
2014-03-04 0 23 0 20 3 629
2014-03-05 2 22 0 21 3 661
2014-03-06 1 18 0 20 2 585
2014-03-07 0 15 0 23 2 700
2014-03-08 1 13 0 21 2 461
2014-03-09 0 4 0 19 2 983
2014-03-10 0 19 0 16 2 791
2014-03-11 1 19 0 19 3 130
2014-03-12 0 16 0 21 3 522
2014-03-13 1 31 0 22 5 550
2014-03-14 0 16 0 26 4 818
2014-03-15 1 11 0 21 5 306
2014-03-16 4 19 0 24 6 026
2014-03-17 3 25 0 20 3 862
2014-03-18 2 35 0 22 5 721
2014-03-19 0 19 0 21 4 981
2014-03-20 1 25 1 18 3 637
2014-03-21 1 27 0 24 5 005
2014-03-22 1 13 0 20 4 151
2014-03-23 4 27 0 20 5 982
2014-03-24 2 46 0 21 4 374
2014-03-25 0 26 0 18 2 690
2014-03-26 2 23 1 19 3 653
2014-03-27 0 19 0 20 3 562
2014-03-28 3 18 0 20 3 984
2014-03-29 0 17 0 17 3 432
2014-03-30 0 7 0 17 2 121
2014-03-31 1 19 0 18 4 300
Février 2014 24 660 5 28 102 996
Janvier 2014 92 974 5 33 99 419
2014-01-01 4 34 0 24 3 312
2014-01-02 0 50 0 23 4 511
2014-01-03 0 43 0 20 2 895
2014-01-04 3 41 0 17 4 764
2014-01-05 1 17 0 25 4 039
2014-01-06 4 36 0 25 5 158
2014-01-07 48 63 0 17 3 220
2014-01-08 1 19 0 24 3 415
2014-01-09 0 34 0 27 4 672
2014-01-10 2 27 1 25 3 536
2014-01-11 1 18 0 33 2 773
2014-01-12 0 29 0 17 4 429
2014-01-13 1 18 0 15 2 791
2014-01-14 2 30 0 17 2 962
2014-01-15 3 21 0 15 2 763
2014-01-16 1 18 0 11 2 260
2014-01-17 1 13 0 13 2 305
2014-01-18 0 20 0 13 2 086
2014-01-19 0 26 0 11 1 961
2014-01-20 6 56 0 13 2 554
2014-01-21 0 38 0 16 2 432
2014-01-22 0 14 0 20 4 564
2014-01-23 0 20 1 21 3 405
2014-01-24 1 16 0 20 2 979
2014-01-25 1 31 1 14 2 094
2014-01-26 3 38 0 14 3 666
2014-01-27 1 43 1 16 3 439
2014-01-28 1 43 1 15 2 432
2014-01-29 3 34 0 15 2 213
2014-01-30 2 36 0 16 3 217
2014-01-31 2 48 0 17 2 572
* 2013 408 8 887 76 89 1 597 727
Décembre 2013 36 785 2 79 132 305
Novembre 2013 36 751 8 29 141 119
Octobre 2013 37 683 10 26 116 570
Septembre 2013 33 723 15 29 160 779
Août 2013 20 356 4 30 113 960
Juillet 2013 21 331 2 24 120 164
Juin 2013 40 731 5 34 119 512
Mai 2013 34 881 3 47 157 484
2013-05-01 0 15 0 18 4 248
2013-05-02 0 9 0 19 6 085
2013-05-03 0 16 0 17 4 788
2013-05-04 2 16 0 20 4 230
2013-05-05 2 34 0 24 4 982
2013-05-06 2 53 0 21 4 256
2013-05-07 0 38 0 21 4 459
2013-05-08 3 29 0 21 4 111
2013-05-09 0 36 0 31 5 286
2013-05-10 0 28 0 47 6 457
2013-05-11 2 28 0 18 5 554
2013-05-12 1 35 0 17 4 775
2013-05-13 2 40 0 19 8 701
2013-05-14 2 34 0 19 5 271
2013-05-15 2 34 0 18 4 752
2013-05-16 0 40 0 20 6 246
2013-05-17 1 24 1 20 5 171
2013-05-18 2 12 0 18 5 484
2013-05-19 1 36 0 22 3 824
2013-05-20 0 9 0 20 5 481
2013-05-21 0 4 0 17 6 094
2013-05-22 1 21 0 17 4 610
2013-05-23 1 14 0 18 5 776
2013-05-24 0 22 0 18 5 736
2013-05-25 0 8 0 17 3 869
2013-05-26 1 32 0 20 4 951
2013-05-27 3 26 0 18 5 140
2013-05-28 0 33 0 21 3 623
2013-05-29 1 34 0 18 3 927
2013-05-30 4 51 2 18 4 466
2013-05-31 1 70 0 20 5 131
Avril 2013 38 799 8 33 124 279
Mars 2013 40 1 111 9 62 147 762
Février 2013 32 838 5 79 125 299
Janvier 2013 41 898 5 89 138 494
* 2012 446 10 690 67 157 1 274 957
Décembre 2012 57 1 411 4 45 150 137
Novembre 2012 46 1 137 8 25 112 399
Octobre 2012 45 1 068 7 25 80 970
Septembre 2012 37 876 11 38 107 023
2012-09-01 0 8 1 16 2 575
2012-09-02 5 43 0 17 3 826
2012-09-03 2 46 0 23 3 659
2012-09-04 1 28 1 17 3 491
2012-09-05 1 45 0 20 3 793
2012-09-06 1 48 0 15 3 882
2012-09-07 0 23 0 17 3 089
2012-09-08 2 35 0 34 3 530
2012-09-09 2 20 1 15 3 371
2012-09-10 4 46 1 27 3 558
2012-09-11 3 41 1 15 3 139
2012-09-12 1 57 0 35 4 503
2012-09-13 0 15 0 38 4 800
2012-09-14 0 18 0 19 3 751
2012-09-15 0 4 0 25 3 135
2012-09-16 2 31 0 21 3 471
2012-09-17 1 51 0 20 3 662
2012-09-18 1 37 2 21 3 924
2012-09-19 0 20 0 22 4 623
2012-09-20 0 24 1 20 4 039
2012-09-21 1 31 1 23 4 071
2012-09-22 0 14 0 23 3 551
2012-09-23 1 14 0 21 3 462
2012-09-24 2 48 1 22 4 769
2012-09-25 4 39 1 23 3 691
2012-09-26 0 22 0 20 3 237
2012-09-27 0 21 0 25 3 229
2012-09-28 0 13 0 16 2 068
2012-09-29 2 16 0 15 1 970
2012-09-30 1 18 0 14 3 154
Août 2012 30 595 5 41 95 032
Juillet 2012 24 563 2 157 78 638
Juin 2012 39 984 10 33 88 620
Mai 2012 22 703 5 26 77 701
Avril 2012 33 714 4 33 95 151
Mars 2012 35 977 5 48 160 160
Février 2012 34 704 5 33 117 877
Janvier 2012 44 958 1 30 111 249
* 2011 822 21 877 118 48 1 861 895
Décembre 2011 68 1 315 7 36 141 929
2011-12-01 0 46 0 28 3 436
2011-12-02 2 46 0 29 5 093
2011-12-03 3 35 0 24 3 173
2011-12-04 5 39 0 26 6 734
2011-12-05 5 109 0 36 4 968
2011-12-06 3 65 0 25 7 602
2011-12-07 4 93 1 28 6 025
2011-12-08 2 76 0 22 4 333
2011-12-09 1 94 0 29 6 392
2011-12-10 5 39 1 25 5 955
2011-12-11 3 49 1 27 5 545
2011-12-12 4 48 0 23 3 344
2011-12-13 3 64 0 28 6 227
2011-12-14 1 28 0 21 2 931
2011-12-15 4 66 1 31 4 951
2011-12-16 3 30 0 28 3 649
2011-12-17 1 29 0 19 4 090
2011-12-18 3 76 1 25 6 571
2011-12-19 5 67 2 23 5 351
2011-12-20 5 57 0 27 5 091
2011-12-21 0 12 0 22 5 526
2011-12-22 0 4 0 25 2 840
2011-12-23 1 8 0 18 3 720
2011-12-24 1 19 0 23 5 013
2011-12-25 1 26 0 17 2 000
2011-12-26 0 22 0 14 3 519
2011-12-27 2 20 0 25 3 302
2011-12-28 0 13 0 24 4 326
2011-12-29 1 16 0 20 3 816
2011-12-30 0 11 0 19 4 054
2011-12-31 0 8 0 28 2 352
Novembre 2011 94 1 539 4 36 150 015
Octobre 2011 81 1 597 13 41 169 207
Septembre 2011 96 1 991 19 24 158 540
2011-09-01 1 105 0 18 4 820
2011-09-02 0 44 0 17 3 692
2011-09-03 0 35 0 16 3 065
2011-09-04 1 39 1 18 3 341
2011-09-05 4 67 1 21 3 815
2011-09-06 0 37 0 12 5 171
2011-09-07 2 64 2 17 7 762
2011-09-08 2 83 0 23 7 440
2011-09-09 0 103 0 20 8 363
2011-09-10 0 27 0 15 6 046
2011-09-11 11 96 0 24 5 135
2011-09-12 6 137 1 18 5 300
2011-09-13 18 102 0 19 6 004
2011-09-14 5 57 0 22 4 369
2011-09-15 2 43 0 15 3 469
2011-09-16 3 88 0 18 5 547
2011-09-17 1 43 2 19 4 640
2011-09-18 4 42 2 21 5 991
2011-09-19 2 80 0 18 5 773
2011-09-20 4 66 1 22 6 364
2011-09-21 8 83 0 21 5 960
2011-09-22 1 47 2 20 4 972
2011-09-23 2 43 0 18 4 346
2011-09-24 2 44 0 23 3 841
2011-09-25 2 62 3 20 4 963
2011-09-26 1 65 0 19 4 935
2011-09-27 6 66 3 19 4 561
2011-09-28 3 108 1 21 5 839
2011-09-29 5 77 0 18 7 139
2011-09-30 0 38 0 15 5 877
Août 2011 68 1 372 16 48 135 201
2011-08-01 1 53 3 16 3 486
2011-08-02 2 33 2 18 3 048
2011-08-03 0 24 0 18 2 915
2011-08-04 3 25 0 16 2 649
2011-08-05 2 35 0 20 3 005
2011-08-06 0 17 0 15 2 618
2011-08-07 2 23 0 12 3 445
2011-08-08 2 63 0 15 3 465
2011-08-09 1 29 0 21 2 868
2011-08-10 1 35 0 22 2 729
2011-08-11 2 42 0 17 2 980
2011-08-12 1 57 0 21 3 655
2011-08-13 1 15 0 12 1 914
2011-08-14 3 11 0 16 2 022
2011-08-15 3 26 0 18 3 670
2011-08-16 2 32 0 11 9 114
2011-08-17 6 40 0 18 8 629
2011-08-18 4 50 0 29 6 811
2011-08-19 1 27 0 14 4 955
2011-08-20 0 16 0 13 2 768
2011-08-21 1 20 2 16 2 731
2011-08-22 2 76 1 15 4 951
2011-08-23 1 73 1 20 7 172
2011-08-24 1 36 1 23 5 952
2011-08-25 6 106 1 16 7 246
2011-08-26 5 112 2 23 8 570
2011-08-27 2 52 0 19 5 138
2011-08-28 4 46 1 13 3 457
2011-08-29 3 83 0 18 4 851
2011-08-30 1 48 1 18 4 507
2011-08-31 5 67 1 48 3 880
Juillet 2011 57 1 156 10 30 112 626
Juin 2011 40 1 214 6 31 149 115
Mai 2011 64 1 997 8 39 181 997
Avril 2011 46 1 637 9 38 176 986
Mars 2011 54 2 388 6 31 211 307
Février 2011 59 2 656 5 46 128 248
Janvier 2011 95 3 015 15 44 146 724
* 2010 615 23 079 70 91 1 409 620
Décembre 2010 54 2 635 5 43 199 984
Novembre 2010 59 2 475 6 49 127 779
Octobre 2010 56 2 811 15 58 134 942
Septembre 2010 53 1 528 8 29 95 249
2010-09-01 2 64 1 15 3 537
2010-09-02 2 76 0 14 3 989
2010-09-03 3 85 0 19 3 885
2010-09-04 1 38 0 20 3 616
2010-09-05 1 48 0 26 5 204
2010-09-06 1 76 0 24 4 914
2010-09-07 0 30 0 17 2 733
2010-09-08 4 80 1 15 3 386
2010-09-09 7 72 0 17 2 897
2010-09-10 1 40 0 21 3 001
2010-09-11 1 30 1 19 2 447
2010-09-12 1 38 0 14 2 426
2010-09-13 1 35 1 17 3 257
2010-09-14 2 49 0 15 2 984
2010-09-15 1 33 0 19 2 355
2010-09-16 0 16 0 15 2 237
2010-09-17 2 27 0 14 2 374
2010-09-18 0 12 0 11 2 345
2010-09-19 1 18 0 17 2 430
2010-09-20 6 97 0 20 3 524
2010-09-21 4 72 2 19 3 395
2010-09-22 3 66 0 29 3 745
2010-09-23 1 45 0 17 3 086
2010-09-24 0 27 0 11 2 457
2010-09-25 3 45 0 17 2 727
2010-09-26 1 68 0 22 3 215
2010-09-27 0 62 1 15 2 961
2010-09-28 3 71 0 17 3 530
2010-09-29 1 56 1 21 4 026
2010-09-30 0 52 0 12 2 566
Août 2010 32 1 287 6 33 89 617
Juillet 2010 34 1 637 5 32 97 290
Juin 2010 46 2 137 3 28 109 648
Mai 2010 50 1 497 6 28 99 050
2010-05-01 1 32 0 21 2 421
2010-05-02 3 74 0 19 3 038
2010-05-03 8 104 1 18 3 744
2010-05-04 2 85 3 21 4 178
2010-05-05 0 40 0 17 3 300
2010-05-06 1 42 0 23 2 824
2010-05-07 0 73 0 18 3 255
2010-05-08 1 44 0 15 3 488
2010-05-09 1 41 0 15 3 389
2010-05-10 1 68 0 19 3 933
2010-05-11 1 48 0 22 5 245
2010-05-12 0 29 0 26 3 746
2010-05-13 0 7 0 18 2 614
2010-05-14 2 27 0 20 2 765
2010-05-15 0 19 0 19 2 419
2010-05-16 2 18 0 16 2 298
2010-05-17 0 57 1 15 3 088
2010-05-18 3 32 0 19 2 709
2010-05-19 1 31 0 19 2 946
2010-05-20 1 29 0 25 2 781
2010-05-21 3 39 0 18 2 646
2010-05-22 0 19 0 21 2 436
2010-05-23 2 20 0 20 2 475
2010-05-24 1 27 0 19 2 780
2010-05-25 5 104 0 19 4 022
2010-05-26 3 91 0 18 3 752
2010-05-27 1 50 0 17 3 010
2010-05-28 2 50 0 28 3 237
2010-05-29 1 43 0 20 3 063
2010-05-30 2 50 1 18 2 987
2010-05-31 2 104 0 25 4 461
Avril 2010 45 1 888 3 26 102 219
Mars 2010 53 1 534 2 46 118 201
Février 2010 65 1 574 4 91 117 274
Janvier 2010 68 2 076 7 43 118 367
* 2009 752 28 223 96 159 970 278
Décembre 2009 39 2 001 5 54 122 418
Novembre 2009 59 3 138 6 38 117 432
Octobre 2009 67 3 218 11 18 122 232
Septembre 2009 73 2 730 14 159 92 082
Août 2009 47 1 405 8 15 61 919
Juillet 2009 68 1 737 11 21 67 267
2009-07-01 4 69 0 14 2 659
2009-07-02 1 67 0 14 2 889
2009-07-03 3 120 2 13 3 026
2009-07-04 1 34 2 12 1 683
2009-07-05 3 64 0 12 1 809
2009-07-06 1 84 1 13 2 368
2009-07-07 1 48 0 11 1 662
2009-07-08 1 41 0 15 1 638
2009-07-09 1 44 1 10 1 732
2009-07-10 2 66 0 14 2 604
2009-07-11 0 31 0 21 1 808
2009-07-12 3 59 1 13 2 004
2009-07-13 1 32 0 18 2 007
2009-07-14 3 33 0 12 1 611
2009-07-15 0 53 0 13 1 922
2009-07-16 1 60 0 12 1 847
2009-07-17 4 83 1 11 2 287
2009-07-18 5 30 1 9 1 496
2009-07-19 3 31 0 8 1 392
2009-07-20 4 127 2 13 3 012
2009-07-21 1 71 0 10 2 792
2009-07-22 5 65 0 11 2 902
2009-07-23 3 53 0 11 2 311
2009-07-24 2 42 0 12 4 785
2009-07-25 1 24 0 10 1 411
2009-07-26 0 18 0 8 1 221
2009-07-27 7 76 0 11 2 378
2009-07-28 3 67 0 12 2 057
2009-07-29 1 39 0 13 1 662
2009-07-30 2 35 0 8 2 204
2009-07-31 1 71 0 9 2 088
Juin 2009 63 2 759 4 37 72 789
Mai 2009 46 2 166 6 16 66 386
Avril 2009 101 2 850 6 16 73 303
Mars 2009 80 3 538 7 17 83 610
Février 2009 57 1 586 6 16 50 521
Janvier 2009 52 1 095 12 10 40 319
* 2008 334 4 655 56 26 234 055
Décembre 2008 36 663 7 12 28 104
Novembre 2008 51 1 090 9 10 35 948
Octobre 2008 50 609 5 10 26 582
Septembre 2008 40 619 5 10 24 365
Août 2008 28 252 6 9 21 916
Juillet 2008 20 256 5 7 16 733
Juin 2008 17 363 6 26 18 903
Mai 2008 17 180 2 10 13 320
Avril 2008 16 146 3 8 16 063
2008-04-01 1 11 0 4 553
2008-04-02 0 4 0 7 503
2008-04-03 2 14 1 4 1 518
2008-04-04 0 6 0 0 1 184
2008-04-05 0 2 0 3 955
2008-04-06 1 4 0 4 680
2008-04-07 1 6 0 4 582
2008-04-08 0 6 0 4 448
2008-04-09 0 1 0 3 419
2008-04-10 1 1 0 5 432
2008-04-11 0 1 0 3 780
2008-04-12 0 4 0 5 909
2008-04-13 0 4 0 3 540
2008-04-14 0 3 1 0 516
2008-04-15 0 1 0 0 343
2008-04-16 0 3 0 0 602
2008-04-17 0 0 0 8 283
2008-04-18 0 1 0 0 415
2008-04-19 0 1 1 4 429
2008-04-20 2 3 0 4 410
2008-04-21 3 15 0 4 521
2008-04-22 0 14 0 6 672
2008-04-23 1 12 0 4 399
2008-04-24 0 3 0 4 350
2008-04-25 0 2 0 4 190
2008-04-26 2 4 0 5 229
2008-04-27 0 2 0 4 308
2008-04-28 0 1 0 4 265
2008-04-29 0 4 0 4 250
2008-04-30 2 13 0 5 378
Mars 2008 18 158 1 9 12 835
2008-03-01 0 0 0 4 340
2008-03-02 2 5 0 0 302
2008-03-03 1 2 0 5 326
2008-03-04 0 2 0 5 294
2008-03-05 1 4 0 3 278
2008-03-06 2 16 0 5 449
2008-03-07 0 14 0 4 449
2008-03-08 1 4 0 0 354
2008-03-09 3 11 0 7 535
2008-03-10 0 2 0 0 368
2008-03-11 1 10 1 7 495
2008-03-12 0 6 0 5 471
2008-03-13 1 5 0 5 382
2008-03-14 0 10 0 7 498
2008-03-15 0 3 0 0 356
2008-03-16 0 4 0 4 344
2008-03-17 0 4 0 6 392
2008-03-18 0 0 0 0 304
2008-03-19 0 6 0 4 239
2008-03-20 0 4 0 3 192
2008-03-21 0 7 0 7 261
2008-03-22 0 0 0 4 319
2008-03-23 3 6 0 4 365
2008-03-24 1 10 0 6 495
2008-03-25 1 7 0 6 353
2008-03-26 0 3 0 3 375
2008-03-27 0 1 0 5 223
2008-03-28 0 2 0 6 979
2008-03-29 0 3 0 3 855
2008-03-30 0 0 0 7 632
2008-03-31 1 7 0 9 610
Février 2008 19 155 2 9 9 679
Janvier 2008 22 164 5 7 9 607
* 2007 276 2 246 55 9 102 999
Décembre 2007 21 167 5 8 17 081
Novembre 2007 20 168 3 6 8 467
Octobre 2007 21 147 4 5 8 193
2007-10-01 3 12 0 3 329
2007-10-02 0 6 0 4 319
2007-10-03 0 3 0 4 296
2007-10-04 2 10 0 3 310
2007-10-05 0 4 0 4 289
2007-10-06 0 0 0 3 208
2007-10-07 1 2 0 5 203
2007-10-08 1 9 1 4 335
2007-10-09 1 3 0 0 267
2007-10-10 1 7 1 3 300
2007-10-11 0 3 0 4 241
2007-10-12 0 2 0 5 251
2007-10-13 1 3 0 3 247
2007-10-14 0 0 0 3 152
2007-10-15 1 3 0 4 225
2007-10-16 0 2 0 2 145
2007-10-17 3 14 0 5 384
2007-10-18 1 5 0 0 378
2007-10-19 1 3 0 0 261
2007-10-20 0 2 0 3 226
2007-10-21 0 7 0 5 265
2007-10-22 0 0 0 3 197
2007-10-23 0 0 0 0 211
2007-10-24 1 2 0 3 164
2007-10-25 0 0 0 4 162
2007-10-26 1 2 0 4 138
2007-10-27 0 0 0 2 243
2007-10-28 2 3 1 4 239
2007-10-29 0 5 0 3 225
2007-10-30 1 20 1 5 587
2007-10-31 0 15 0 0 396
Septembre 2007 22 183 4 9 9 896
Août 2007 23 226 2 6 9 096
2007-08-01 1 11 0 0 281
2007-08-02 0 4 0 4 224
2007-08-03 2 13 1 0 357
2007-08-04 0 5 0 3 265
2007-08-05 0 0 0 1 129
2007-08-06 1 1 0 2 171
2007-08-07 1 2 0 0 211
2007-08-08 0 0 0 2 132
2007-08-09 1 3 0 2 133
2007-08-10 0 1 0 2 177
2007-08-11 0 0 0 2 104
2007-08-12 0 0 0 3 97
2007-08-13 0 3 0 3 220
2007-08-14 0 0 0 3 199
2007-08-15 0 0 0 0 163
2007-08-16 1 4 0 2 166
2007-08-17 0 6 0 5 274
2007-08-18 0 3 1 3 274
2007-08-19 1 4 0 3 258
2007-08-20 1 14 0 4 417
2007-08-21 2 9 0 3 352
2007-08-22 1 18 0 3 434
2007-08-23 1 12 0 4 412
2007-08-24 0 7 0 6 267
2007-08-25 0 7 0 5 265
2007-08-26 2 11 0 4 363
2007-08-27 1 27 0 6 720
2007-08-28 1 17 0 0 580
2007-08-29 2 9 0 0 492
2007-08-30 3 27 0 5 648
2007-08-31 1 8 0 5 311
Juillet 2007 18 127 1 4 10 165
Juin 2007 25 309 2 6 13 196
Mai 2007 30 315 8 7 11 830
Avril 2007 44 428 13 9 13 382
2007-04-01 0 21 1 4 390
2007-04-02 4 25 0 6 522
2007-04-03 4 21 1 6 568
2007-04-04 3 41 1 8 1 017
2007-04-05 2 58 0 6 1 236
2007-04-06 1 29 0 6 771
2007-04-07 2 16 1 4 539
2007-04-08 0 6 0 3 243
2007-04-09 2 12 0 6 273
2007-04-10 0 6 0 6 265
2007-04-11 1 7 0 8 508
2007-04-12 1 4 1 8 599
2007-04-13 1 8 1 9 612
2007-04-14 1 2 0 4 309
2007-04-15 0 5 0 5 135
2007-04-16 0 11 0 4 467
2007-04-17 0 4 1 4 250
2007-04-18 1 8 0 7 274
2007-04-19 6 17 0 6 489
2007-04-20 1 23 1 5 463
2007-04-21 1 9 0 6 307
2007-04-22 1 11 2 4 277
2007-04-23 2 10 1 6 377
2007-04-24 1 22 0 5 524
2007-04-25 2 17 1 6 389
2007-04-26 3 12 0 6 502
2007-04-27 1 11 0 4 361
2007-04-28 2 3 0 3 172
2007-04-29 0 8 1 5 310
2007-04-30 1 1 0 5 233
Mars 2007 52 176 13 4 1 693